Wetterdaten: Woche 31.07.06 - 06.08.06 (KW31)
Datum Zeit Temperatur Luftfeuchte Luftdruck Niederschlag Windrichtung Wind
31.07.2006 00:00 19,6 C 83 % 1015 hPa 0,0 l/m N 0,0 km/h (0 Bft)
31.07.2006 01:00 18,7 C 87 % 1016 hPa 0,0 l/m W-SW 1,8 km/h (1 Bft)
31.07.2006 02:00 18,2 C 90 % 1016 hPa 0,0 l/m N 0,2 km/h (0 Bft)
31.07.2006 03:00 17,6 C 94 % 1016 hPa 0,0 l/m N 0,0 km/h (0 Bft)
31.07.2006 04:00 17,2 C 96 % 1016 hPa 0,0 l/m N 0,0 km/h (0 Bft)
31.07.2006 05:00 16,7 C 98 % 1016 hPa 0,0 l/m N 0,0 km/h (0 Bft)
31.07.2006 06:00 16,4 C 100 % 1016 hPa 0,0 l/m N 0,0 km/h (0 Bft)
31.07.2006 07:00 17,3 C 100 % 1016 hPa 0,0 l/m N 0,0 km/h (0 Bft)
31.07.2006 08:00 18,8 C 95 % 1016 hPa 0,0 l/m O-SO 0,3 km/h (0 Bft)
31.07.2006 09:00 20,7 C 81 % 1015 hPa 0,0 l/m S 10,2 km/h (2 Bft)
31.07.2006 10:00 22,5 C 69 % 1015 hPa 0,0 l/m S 14,4 km/h (3 Bft)
31.07.2006 11:00 24,8 C 61 % 1015 hPa 0,0 l/m O-SO 12,9 km/h (3 Bft)
31.07.2006 12:00 26,8 C 55 % 1014 hPa 0,0 l/m S 18,5 km/h (3 Bft)
31.07.2006 13:00 28,1 C 46 % 1014 hPa 0,0 l/m S 18,7 km/h (3 Bft)
31.07.2006 14:00 28,1 C 43 % 1013 hPa 0,0 l/m W-SW 14,9 km/h (3 Bft)
31.07.2006 15:00 24,2 C 60 % 1013 hPa 0,0 l/m W-SW 18,4 km/h (3 Bft)
31.07.2006 16:00 19,7 C 87 % 1014 hPa 0,0 l/m W 13,3 km/h (3 Bft)
31.07.2006 17:00 19,4 C 96 % 1014 hPa 1,0 l/m W 9,8 km/h (2 Bft)
31.07.2006 18:00 19,6 C 94 % 1014 hPa 0,0 l/m W 2,8 km/h (1 Bft)
31.07.2006 19:00 19,2 C 90 % 1014 hPa 0,0 l/m S 1,0 km/h (0 Bft)
31.07.2006 20:00 18,9 C 94 % 1015 hPa 0,0 l/m S 4,3 km/h (1 Bft)
31.07.2006 21:00 18,8 C 97 % 1015 hPa 0,0 l/m N 0,0 km/h (0 Bft)
31.07.2006 22:00 18,7 C 99 % 1015 hPa 0,0 l/m S 3,9 km/h (1 Bft)
31.07.2006 23:00 18,4 C 99 % 1015 hPa 0,0 l/m S-SW 3,0 km/h (1 Bft)
01.08.2006 00:00 18,1 C 99 % 1014 hPa 0,0 l/m S-SO 0,2 km/h (0 Bft)
01.08.2006 01:00 17,8 C 100 % 1014 hPa 0,0 l/m S-SW 2,1 km/h (1 Bft)
01.08.2006 02:00 17,7 C 100 % 1014 hPa 0,0 l/m N 0,0 km/h (0 Bft)
01.08.2006 03:00 17,6 C 100 % 1013 hPa 0,0 l/m N 0,0 km/h (0 Bft)
01.08.2006 04:00 17,3 C 100 % 1013 hPa 0,0 l/m N 0,0 km/h (0 Bft)
01.08.2006 05:00 17,0 C 100 % 1013 hPa 0,0 l/m N 0,0 km/h (0 Bft)
01.08.2006 06:00 16,8 C 100 % 1013 hPa 0,0 l/m W-SW 4,6 km/h (1 Bft)
01.08.2006 07:00 17,0 C 100 % 1012 hPa 0,0 l/m W-SW 3,3 km/h (1 Bft)
01.08.2006 08:00 17,4 C 98 % 1013 hPa 0,0 l/m W-SW 6,2 km/h (2 Bft)
01.08.2006 09:00 17,6 C 93 % 1013 hPa 0,0 l/m W-SW 7,3 km/h (2 Bft)
01.08.2006 10:00 17,3 C 92 % 1013 hPa 0,0 l/m S-SW 3,5 km/h (1 Bft)
01.08.2006 11:00 17,4 C 85 % 1013 hPa 2,0 l/m S-SW 14,9 km/h (3 Bft)
01.08.2006 12:00 17,7 C 88 % 1012 hPa 0,0 l/m S-SW 22,7 km/h (4 Bft)
01.08.2006 13:00 17,5 C 86 % 1012 hPa 0,0 l/m S-SW 21,1 km/h (4 Bft)
01.08.2006 14:00 17,1 C 86 % 1012 hPa 0,0 l/m S-SW 15,8 km/h (3 Bft)
01.08.2006 15:00 18,0 C 84 % 1011 hPa 0,0 l/m S-SW 15,0 km/h (3 Bft)
01.08.2006 16:00 18,8 C 81 % 1011 hPa 0,0 l/m W-SW 17,5 km/h (3 Bft)
01.08.2006 17:00 20,1 C 66 % 1011 hPa 0,0 l/m W-SW 20,0 km/h (4 Bft)
01.08.2006 18:00 20,2 C 64 % 1010 hPa 0,0 l/m W-SW 16,9 km/h (3 Bft)
01.08.2006 19:00 19,3 C 72 % 1010 hPa 0,0 l/m S-SW 14,7 km/h (3 Bft)
01.08.2006 20:00 18,4 C 73 % 1011 hPa 0,0 l/m W-SW 20,3 km/h (4 Bft)
01.08.2006 21:00 15,3 C 93 % 1012 hPa 0,0 l/m W 18,0 km/h (3 Bft)
01.08.2006 22:00 14,8 C 98 % 1012 hPa 0,0 l/m W-SW 10,8 km/h (2 Bft)
01.08.2006 23:00 14,6 C 97 % 1012 hPa 0,0 l/m W-SW 10,3 km/h (2 Bft)
02.08.2006 00:00 14,2 C 95 % 1013 hPa 1,0 l/m W-SW 10,8 km/h (2 Bft)
02.08.2006 01:00 14,2 C 94 % 1013 hPa 0,0 l/m S-SW 10,1 km/h (2 Bft)
02.08.2006 02:00 14,4 C 96 % 1013 hPa 0,0 l/m S-SW 15,6 km/h (3 Bft)
02.08.2006 03:00 14,7 C 88 % 1013 hPa 0,0 l/m SW 15,4 km/h (3 Bft)
02.08.2006 04:00 14,3 C 89 % 1013 hPa 0,0 l/m W-SW 11,8 km/h (2 Bft)
02.08.2006 05:00 14,2 C 88 % 1013 hPa 0,0 l/m SW 12,4 km/h (3 Bft)
02.08.2006 06:00 14,2 C 86 % 1013 hPa 0,0 l/m S-SW 11,1 km/h (2 Bft)
02.08.2006 07:00 14,6 C 84 % 1013 hPa 0,0 l/m W-SW 13,8 km/h (3 Bft)
02.08.2006 08:00 15,6 C 81 % 1013 hPa 0,0 l/m SW 13,5 km/h (3 Bft)
02.08.2006 09:00 16,2 C 76 % 1013 hPa 0,0 l/m W-SW 18,1 km/h (3 Bft)
02.08.2006 10:00 16,9 C 75 % 1013 hPa 0,0 l/m S-SW 19,8 km/h (3 Bft)
02.08.2006 11:00 18,5 C 66 % 1012 hPa 0,0 l/m S-SW 21,0 km/h (4 Bft)
02.08.2006 12:00 18,9 C 60 % 1012 hPa 0,0 l/m W-SW 17,2 km/h (3 Bft)
02.08.2006 13:00 18,2 C 70 % 1011 hPa 0,0 l/m W-SW 16,1 km/h (3 Bft)
02.08.2006 14:00 19,2 C 63 % 1011 hPa 0,0 l/m W-SW 23,8 km/h (4 Bft)
02.08.2006 15:00 21,0 C 46 % 1010 hPa 0,0 l/m W-SW 22,3 km/h (4 Bft)
02.08.2006 16:00 21,4 C 45 % 1010 hPa 0,0 l/m SW 19,7 km/h (3 Bft)
02.08.2006 17:00 21,1 C 43 % 1009 hPa 0,0 l/m W-SW 19,2 km/h (3 Bft)
02.08.2006 18:00 20,8 C 44 % 1009 hPa 0,0 l/m SW 15,9 km/h (3 Bft)
02.08.2006 19:00 19,8 C 46 % 1009 hPa 0,0 l/m W-SW 11,4 km/h (2 Bft)
02.08.2006 20:00 18,7 C 50 % 1009 hPa 0,0 l/m W 11,6 km/h (2 Bft)
02.08.2006 21:00 17,8 C 54 % 1009 hPa 0,0 l/m W 12,8 km/h (3 Bft)
02.08.2006 22:00 17,1 C 58 % 1009 hPa 0,0 l/m W 5,5 km/h (1 Bft)
02.08.2006 23:00 16,1 C 68 % 1009 hPa 0,0 l/m W 2,3 km/h (1 Bft)
03.08.2006 00:00 15,8 C 68 % 1008 hPa 0,0 l/m W-SW 5,0 km/h (1 Bft)
03.08.2006 01:00 15,7 C 68 % 1008 hPa 0,0 l/m W-SW 4,5 km/h (1 Bft)
03.08.2006 02:00 15,5 C 68 % 1008 hPa 0,0 l/m W-SW 5,6 km/h (1 Bft)
03.08.2006 03:00 15,3 C 74 % 1007 hPa 0,0 l/m N 0,0 km/h (0 Bft)
03.08.2006 04:00 14,5 C 86 % 1006 hPa 0,0 l/m W 0,7 km/h (0 Bft)
03.08.2006 05:00 13,7 C 94 % 1006 hPa 1,0 l/m W-SW 1,5 km/h (1 Bft)
03.08.2006 06:00 13,2 C 97 % 1006 hPa 0,0 l/m N 0,0 km/h (0 Bft)
03.08.2006 07:00 13,1 C 98 % 1006 hPa 1,0 l/m N 0,0 km/h (0 Bft)
03.08.2006 08:00 13,1 C 98 % 1005 hPa 0,0 l/m N 0,0 km/h (0 Bft)
03.08.2006 09:00 13,3 C 99 % 1005 hPa 3,0 l/m N 1,3 km/h (1 Bft)
03.08.2006 10:00 13,0 C 100 % 1006 hPa 9,0 l/m W 8,3 km/h (2 Bft)
03.08.2006 11:00 12,8 C 100 % 1006 hPa 3,0 l/m W-SW 4,4 km/h (1 Bft)
03.08.2006 12:00 13,4 C 100 % 1006 hPa 0,0 l/m N-NO 0,9 km/h (0 Bft)
03.08.2006 13:00 14,0 C 96 % 1006 hPa 0,0 l/m N-NO 9,2 km/h (2 Bft)
03.08.2006 14:00 14,6 C 84 % 1006 hPa 0,0 l/m O-NO 12,3 km/h (3 Bft)
03.08.2006 15:00 15,1 C 75 % 1006 hPa 0,0 l/m N-NO 9,8 km/h (2 Bft)
03.08.2006 16:00 15,6 C 73 % 1007 hPa 0,0 l/m NO 3,0 km/h (1 Bft)
03.08.2006 17:00 15,9 C 70 % 1007 hPa 0,0 l/m NO 0,8 km/h (0 Bft)
03.08.2006 18:00 16,2 C 64 % 1007 hPa 0,0 l/m O 3,4 km/h (1 Bft)
03.08.2006 19:00 15,4 C 72 % 1008 hPa 0,0 l/m S 2,7 km/h (1 Bft)
03.08.2006 20:00 14,0 C 83 % 1009 hPa 0,0 l/m W-SW 13,2 km/h (3 Bft)
03.08.2006 21:00 12,7 C 87 % 1009 hPa 0,0 l/m S 10,4 km/h (2 Bft)
03.08.2006 22:00 12,5 C 91 % 1010 hPa 0,0 l/m S 8,2 km/h (2 Bft)
03.08.2006 23:00 12,2 C 97 % 1010 hPa 0,0 l/m S 11,2 km/h (2 Bft)
04.08.2006 00:00 12,0 C 100 % 1010 hPa 2,0 l/m S 3,7 km/h (1 Bft)
04.08.2006 01:00 11,4 C 99 % 1009 hPa 0,0 l/m S-SW 10,4 km/h (2 Bft)
04.08.2006 02:00 11,3 C 100 % 1009 hPa 0,0 l/m S 6,2 km/h (2 Bft)
04.08.2006 03:00 11,5 C 100 % 1009 hPa 0,0 l/m N 0,4 km/h (0 Bft)
04.08.2006 04:00 11,7 C 100 % 1009 hPa 0,0 l/m S 1,1 km/h (1 Bft)
04.08.2006 05:00 11,6 C 100 % 1009 hPa 0,0 l/m N 0,0 km/h (0 Bft)
04.08.2006 06:00 11,6 C 100 % 1009 hPa 0,0 l/m N 0,0 km/h (0 Bft)
04.08.2006 07:00 11,7 C 100 % 1010 hPa 0,0 l/m N 0,0 km/h (0 Bft)
04.08.2006 08:00 12,5 C 100 % 1010 hPa 0,0 l/m W-SW 1,9 km/h (1 Bft)
04.08.2006 09:00 13,2 C 98 % 1011 hPa 0,0 l/m W-SW 0,3 km/h (0 Bft)
04.08.2006 10:00 14,0 C 92 % 1011 hPa 0,0 l/m W 2,7 km/h (1 Bft)
04.08.2006 11:00 14,7 C 85 % 1011 hPa 0,0 l/m N 0,0 km/h (0 Bft)
04.08.2006 12:00 16,1 C 78 % 1011 hPa 0,0 l/m S 10,3 km/h (2 Bft)
04.08.2006 13:00 14,6 C 87 % 1011 hPa 3,0 l/m S-SW 13,0 km/h (3 Bft)
04.08.2006 14:00 13,9 C 96 % 1011 hPa 0,0 l/m S-SW 14,1 km/h (3 Bft)
04.08.2006 15:00 15,1 C 86 % 1011 hPa 0,0 l/m S-SW 14,8 km/h (3 Bft)
04.08.2006 16:00 15,8 C 85 % 1011 hPa 0,0 l/m S 19,4 km/h (3 Bft)
04.08.2006 17:00 17,2 C 77 % 1011 hPa 0,0 l/m S-SW 20,7 km/h (4 Bft)
04.08.2006 18:00 16,3 C 75 % 1012 hPa 0,0 l/m S-SW 15,5 km/h (3 Bft)
04.08.2006 19:00 15,1 C 86 % 1012 hPa 1,0 l/m W-SW 2,9 km/h (1 Bft)
04.08.2006 20:00 14,4 C 94 % 1013 hPa 0,0 l/m N 0,0 km/h (0 Bft)
04.08.2006 21:00 13,9 C 98 % 1013 hPa 0,0 l/m N 0,0 km/h (0 Bft)
04.08.2006 22:00 13,5 C 100 % 1013 hPa 1,0 l/m S 3,0 km/h (1 Bft)
04.08.2006 23:00 13,2 C 100 % 1013 hPa 0,0 l/m S-SO 1,3 km/h (1 Bft)
05.08.2006 00:00 12,7 C 100 % 1013 hPa 0,0 l/m S-SW 2,5 km/h (1 Bft)
05.08.2006 01:00 12,6 C 100 % 1013 hPa 0,0 l/m SW 0,6 km/h (0 Bft)
05.08.2006 02:00 12,1 C 100 % 1013 hPa 0,0 l/m N 0,0 km/h (0 Bft)
05.08.2006 03:00 12,0 C 100 % 1013 hPa 0,0 l/m N 0,2 km/h (0 Bft)
05.08.2006 04:00 11,7 C 100 % 1013 hPa 0,0 l/m S-SO 0,4 km/h (0 Bft)
05.08.2006 05:00 11,2 C 100 % 1013 hPa 0,0 l/m N 0,0 km/h (0 Bft)
05.08.2006 06:00 11,2 C 100 % 1013 hPa 0,0 l/m N 0,0 km/h (0 Bft)
05.08.2006 07:00 11,7 C 100 % 1014 hPa 0,0 l/m N 0,0 km/h (0 Bft)
05.08.2006 08:00 12,5 C 100 % 1014 hPa 0,0 l/m N 0,0 km/h (0 Bft)
05.08.2006 09:00 13,1 C 100 % 1015 hPa 1,0 l/m W 1,6 km/h (1 Bft)
05.08.2006 10:00 13,5 C 100 % 1015 hPa 0,0 l/m W 5,7 km/h (1 Bft)
05.08.2006 11:00 14,5 C 98 % 1015 hPa 0,0 l/m W 4,4 km/h (1 Bft)
05.08.2006 12:00 16,4 C 82 % 1015 hPa 0,0 l/m W 3,4 km/h (1 Bft)
05.08.2006 13:00 17,7 C 72 % 1015 hPa 0,0 l/m S-SW 7,1 km/h (2 Bft)
05.08.2006 14:00 17,2 C 75 % 1015 hPa 0,0 l/m S-SW 6,5 km/h (2 Bft)
05.08.2006 15:00 16,3 C 81 % 1015 hPa 10,0 l/m S-SO 7,1 km/h (2 Bft)
05.08.2006 16:00 14,9 C 97 % 1015 hPa 4,0 l/m S-SW 7,6 km/h (2 Bft)
05.08.2006 17:00 17,0 C 87 % 1015 hPa 0,0 l/m S-SW 13,3 km/h (3 Bft)
05.08.2006 18:00 16,7 C 85 % 1015 hPa 0,0 l/m S-SW 4,6 km/h (1 Bft)
05.08.2006 19:00 15,9 C 89 % 1016 hPa 0,0 l/m W-SW 3,7 km/h (1 Bft)
05.08.2006 20:00 15,0 C 94 % 1016 hPa 1,0 l/m W-SW 5,7 km/h (1 Bft)
05.08.2006 21:00 14,2 C 98 % 1017 hPa 0,0 l/m W-SW 6,8 km/h (2 Bft)
05.08.2006 22:00 13,9 C 100 % 1017 hPa 0,0 l/m S 3,7 km/h (1 Bft)
05.08.2006 23:00 13,6 C 100 % 1017 hPa 0,0 l/m S-SW 5,6 km/h (1 Bft)
06.08.2006 00:00 13,7 C 100 % 1017 hPa 0,0 l/m N 0,4 km/h (0 Bft)
06.08.2006 01:00 13,6 C 100 % 1017 hPa 0,0 l/m S-SW 2,1 km/h (1 Bft)
06.08.2006 02:00 13,3 C 100 % 1016 hPa 1,0 l/m S 3,1 km/h (1 Bft)
06.08.2006 03:00 13,1 C 100 % 1016 hPa 0,0 l/m W-SW 2,7 km/h (1 Bft)
06.08.2006 04:00 13,2 C 100 % 1016 hPa 1,0 l/m W-SW 4,4 km/h (1 Bft)
06.08.2006 05:00 13,2 C 100 % 1016 hPa 2,0 l/m W-SW 3,8 km/h (1 Bft)
06.08.2006 06:00 13,0 C 100 % 1016 hPa 1,0 l/m W-SW 9,4 km/h (2 Bft)
06.08.2006 07:00 13,1 C 100 % 1016 hPa 0,0 l/m S 1,5 km/h (1 Bft)
06.08.2006 08:00 13,4 C 100 % 1016 hPa 0,0 l/m S 2,7 km/h (1 Bft)
06.08.2006 09:00 14,0 C 100 % 1016 hPa 0,0 l/m W 7,0 km/h (2 Bft)
06.08.2006 10:00 15,1 C 100 % 1016 hPa 0,0 l/m W 9,9 km/h (2 Bft)
06.08.2006 11:00 16,2 C 90 % 1016 hPa 0,0 l/m W 12,2 km/h (2 Bft)
06.08.2006 12:00 17,3 C 80 % 1016 hPa 0,0 l/m W 13,9 km/h (3 Bft)
06.08.2006 13:00 17,9 C 73 % 1016 hPa 0,0 l/m W 16,5 km/h (3 Bft)
06.08.2006 14:00 18,7 C 64 % 1016 hPa 0,0 l/m W 11,9 km/h (2 Bft)
06.08.2006 15:00 19,4 C 62 % 1016 hPa 0,0 l/m W 11,6 km/h (2 Bft)
06.08.2006 16:00 18,2 C 72 % 1016 hPa 0,0 l/m W-SW 8,3 km/h (2 Bft)
06.08.2006 17:00 17,2 C 78 % 1016 hPa 0,0 l/m W-SW 13,4 km/h (3 Bft)
06.08.2006 18:00 16,1 C 89 % 1017 hPa 5,0 l/m S-SW 13,2 km/h (3 Bft)
06.08.2006 19:00 14,7 C 95 % 1017 hPa 1,0 l/m W 2,9 km/h (1 Bft)
06.08.2006 20:00 14,1 C 98 % 1017 hPa 0,0 l/m W-SW 9,4 km/h (2 Bft)
06.08.2006 21:00 14,0 C 100 % 1017 hPa 0,0 l/m W-SW 15,3 km/h (3 Bft)
06.08.2006 22:00 14,1 C 100 % 1017 hPa 0,0 l/m W-SW 13,3 km/h (3 Bft)
06.08.2006 23:00 14,2 C 100 % 1017 hPa 4,0 l/m W-SW 12,6 km/h (3 Bft)
Min-Datum _ 05.08.06 02.08.06 03.08.06 - - 31.07.06
_ Min-Zeit 05:50 17:33 06:19 - - 00:00
Minimum _ 11,0 C 38 % 1005 hPa - - 0,0 km/h (0 Bft)
Max-Datum _ 31.07.06 31.07.06 05.08.06 05.08.06 - 31.07.06
_ Max-Zeit 14:23 06:24 21:48 15:21 - 15:28
Maximum _ 28,4 C 100 % 1017 hPa 10,0 l/m - 64,5 km/h
W-SW (8 Bft)
Durchschnitt _ 16,0 C 87 % 1013 hPa #59,0 l/m W-SW 7,7 km/h (2 Bft)

Durchschnitt Minimum Temp.15,6 C
Durchschnitt Maximum Temp.16,4 C